sensor_id;sensor_type;location;lat;lon;timestamp;pressure;altitude;pressure_sealevel;temperature;humidity
50702;BME280;36670;50.094;8.496;2023-09-18T00:00:44;99589.53;;;25.51;53.39
50702;BME280;36670;50.094;8.496;2023-09-18T00:03:10;99584.31;;;25.53;53.69
50702;BME280;36670;50.094;8.496;2023-09-18T00:05:35;99587.50;;;25.52;53.88
50702;BME280;36670;50.094;8.496;2023-09-18T00:08:00;99592.56;;;25.43;53.58
50702;BME280;36670;50.094;8.496;2023-09-18T00:10:27;99584.25;;;25.50;53.15
50702;BME280;36670;50.094;8.496;2023-09-18T00:12:54;99584.97;;;25.47;53.67
50702;BME280;36670;50.094;8.496;2023-09-18T00:15:19;99581.47;;;25.53;53.40
50702;BME280;36670;50.094;8.496;2023-09-18T00:17:45;99580.88;;;25.83;52.64
50702;BME280;36670;50.094;8.496;2023-09-18T00:20:10;99580.13;;;26.06;52.05
50702;BME280;36670;50.094;8.496;2023-09-18T00:22:35;99571.97;;;25.62;52.56
50702;BME280;36670;50.094;8.496;2023-09-18T00:25:01;99569.13;;;25.42;53.85
50702;BME280;36670;50.094;8.496;2023-09-18T00:27:29;99571.81;;;25.74;53.09
50702;BME280;36670;50.094;8.496;2023-09-18T00:29:54;99580.59;;;25.49;53.48
50702;BME280;36670;50.094;8.496;2023-09-18T00:32:20;99566.53;;;25.53;53.50
50702;BME280;36670;50.094;8.496;2023-09-18T00:34:45;99568.63;;;25.20;53.58
50702;BME280;36670;50.094;8.496;2023-09-18T00:37:10;99564.06;;;24.96;55.19
50702;BME280;36670;50.094;8.496;2023-09-18T00:39:37;99558.06;;;25.17;54.65
50702;BME280;36670;50.094;8.496;2023-09-18T00:42:03;99543.19;;;25.36;53.56
50702;BME280;36670;50.094;8.496;2023-09-18T00:44:28;99541.03;;;25.49;53.13
50702;BME280;36670;50.094;8.496;2023-09-18T00:46:53;99537.44;;;25.33;54.18
50702;BME280;36670;50.094;8.496;2023-09-18T00:49:21;99536.72;;;25.55;53.76
50702;BME280;36670;50.094;8.496;2023-09-18T00:51:47;99543.56;;;25.35;53.55
50702;BME280;36670;50.094;8.496;2023-09-18T00:54:15;99537.16;;;25.58;53.26
50702;BME280;36670;50.094;8.496;2023-09-18T00:56:43;99543.28;;;25.83;53.26
50702;BME280;36670;50.094;8.496;2023-09-18T00:59:09;99537.72;;;25.86;52.60
50702;BME280;36670;50.094;8.496;2023-09-18T01:01:35;99529.66;;;25.46;53.39
50702;BME280;36670;50.094;8.496;2023-09-18T01:04:00;99527.25;;;25.28;54.10
50702;BME280;36670;50.094;8.496;2023-09-18T01:06:26;99510.72;;;25.11;54.53
50702;BME280;36670;50.094;8.496;2023-09-18T01:08:55;99513.78;;;25.21;53.85
50702;BME280;36670;50.094;8.496;2023-09-18T01:11:35;99507.69;;;25.19;54.64
50702;BME280;36670;50.094;8.496;2023-09-18T01:16:36;99504.41;;;24.46;56.16
50702;BME280;36670;50.094;8.496;2023-09-18T01:19:01;99502.78;;;24.61;56.02
50702;BME280;36670;50.094;8.496;2023-09-18T01:21:28;99502.50;;;24.50;55.61
50702;BME280;36670;50.094;8.496;2023-09-18T01:23:54;99487.16;;;24.83;55.56
50702;BME280;36670;50.094;8.496;2023-09-18T01:26:19;99495.47;;;24.76;55.08
50702;BME280;36670;50.094;8.496;2023-09-18T01:28:44;99498.66;;;24.59;55.25
50702;BME280;36670;50.094;8.496;2023-09-18T01:31:09;99513.91;;;24.90;55.26
50702;BME280;36670;50.094;8.496;2023-09-18T01:33:37;99517.22;;;25.11;54.09
50702;BME280;36670;50.094;8.496;2023-09-18T01:36:05;99516.41;;;25.30;53.82
50702;BME280;36670;50.094;8.496;2023-09-18T01:38:32;99510.38;;;25.32;53.72
50702;BME280;36670;50.094;8.496;2023-09-18T01:40:59;99501.56;;;24.98;54.37
50702;BME280;36670;50.094;8.496;2023-09-18T01:43:24;99498.09;;;24.69;54.93
50702;BME280;36670;50.094;8.496;2023-09-18T01:45:50;99500.56;;;24.54;55.96
50702;BME280;36670;50.094;8.496;2023-09-18T01:48:16;99495.59;;;24.64;55.46
50702;BME280;36670;50.094;8.496;2023-09-18T01:50:42;99484.75;;;24.66;55.39
50702;BME280;36670;50.094;8.496;2023-09-18T01:53:07;99495.94;;;24.98;54.48
50702;BME280;36670;50.094;8.496;2023-09-18T01:55:32;99491.50;;;25.16;54.37
50702;BME280;36670;50.094;8.496;2023-09-18T01:57:58;99499.81;;;25.09;54.97
50702;BME280;36670;50.094;8.496;2023-09-18T02:00:24;99481.06;;;25.01;55.17
50702;BME280;36670;50.094;8.496;2023-09-18T02:02:49;99500.63;;;24.90;55.05
50702;BME280;36670;50.094;8.496;2023-09-18T02:05:14;99510.03;;;24.98;55.99
50702;BME280;36670;50.094;8.496;2023-09-18T02:07:39;99525.44;;;25.36;55.25
50702;BME280;36670;50.094;8.496;2023-09-18T02:10:05;99560.88;;;25.72;54.61
50702;BME280;36670;50.094;8.496;2023-09-18T02:12:31;99598.13;;;25.78;54.79
50702;BME280;36670;50.094;8.496;2023-09-18T02:14:56;99607.44;;;25.79;54.52
50702;BME280;36670;50.094;8.496;2023-09-18T02:17:23;99601.25;;;25.73;54.33
50702;BME280;36670;50.094;8.496;2023-09-18T02:19:48;99599.78;;;25.79;54.79
50702;BME280;36670;50.094;8.496;2023-09-18T02:22:14;99589.84;;;25.30;55.50
50702;BME280;36670;50.094;8.496;2023-09-18T02:24:39;99588.09;;;25.06;56.44
50702;BME280;36670;50.094;8.496;2023-09-18T02:27:05;99585.97;;;24.67;58.60
50702;BME280;36670;50.094;8.496;2023-09-18T02:29:30;99568.66;;;24.69;58.75
50702;BME280;36670;50.094;8.496;2023-09-18T02:31:56;99601.25;;;24.82;58.42
50702;BME280;36670;50.094;8.496;2023-09-18T02:34:21;99604.00;;;24.79;58.85
50702;BME280;36670;50.094;8.496;2023-09-18T02:36:46;99575.78;;;24.79;58.46
50702;BME280;36670;50.094;8.496;2023-09-18T02:39:12;99556.91;;;24.83;58.71
50702;BME280;36670;50.094;8.496;2023-09-18T02:41:38;99547.66;;;25.02;57.64
50702;BME280;36670;50.094;8.496;2023-09-18T02:44:03;99546.19;;;24.73;58.97
50702;BME280;36670;50.094;8.496;2023-09-18T02:46:29;99562.16;;;24.65;59.32
50702;BME280;36670;50.094;8.496;2023-09-18T02:48:54;99545.28;;;24.68;59.59
50702;BME280;36670;50.094;8.496;2023-09-18T02:51:19;99547.25;;;25.19;57.40
50702;BME280;36670;50.094;8.496;2023-09-18T02:53:45;99549.66;;;25.37;57.38
50702;BME280;36670;50.094;8.496;2023-09-18T02:56:10;99537.31;;;25.45;57.08
50702;BME280;36670;50.094;8.496;2023-09-18T02:58:35;99543.28;;;25.40;57.10
50702;BME280;36670;50.094;8.496;2023-09-18T03:01:01;99532.31;;;25.38;57.37
50702;BME280;36670;50.094;8.496;2023-09-18T03:03:28;99515.38;;;25.58;57.24
50702;BME280;36670;50.094;8.496;2023-09-18T03:06:00;99530.53;;;25.69;56.08
50702;BME280;36670;50.094;8.496;2023-09-18T03:08:26;99525.94;;;25.61;57.03
50702;BME280;36670;50.094;8.496;2023-09-18T03:10:51;99506.94;;;25.62;56.48
50702;BME280;36670;50.094;8.496;2023-09-18T03:13:17;99504.44;;;25.37;57.38
50702;BME280;36670;50.094;8.496;2023-09-18T03:15:46;99490.22;;;25.14;58.77
50702;BME280;36670;50.094;8.496;2023-09-18T03:18:12;99486.56;;;25.13;57.69
50702;BME280;36670;50.094;8.496;2023-09-18T03:20:38;99471.19;;;24.91;59.13
50702;BME280;36670;50.094;8.496;2023-09-18T03:23:03;99474.22;;;24.47;59.75
50702;BME280;36670;50.094;8.496;2023-09-18T03:25:29;99466.41;;;24.76;59.32
50702;BME280;36670;50.094;8.496;2023-09-18T03:27:55;99472.06;;;24.76;59.56
50702;BME280;36670;50.094;8.496;2023-09-18T03:30:22;99474.97;;;24.28;60.98
50702;BME280;36670;50.094;8.496;2023-09-18T03:32:49;99478.03;;;24.39;60.56
50702;BME280;36670;50.094;8.496;2023-09-18T03:35:14;99488.13;;;24.56;59.67
50702;BME280;36670;50.094;8.496;2023-09-18T03:37:53;99484.09;;;24.73;59.18
50702;BME280;36670;50.094;8.496;2023-09-18T03:40:19;99483.16;;;24.84;58.76
50702;BME280;36670;50.094;8.496;2023-09-18T03:42:45;99484.44;;;24.55;59.66
50702;BME280;36670;50.094;8.496;2023-09-18T03:45:11;99482.81;;;24.70;58.76
50702;BME280;36670;50.094;8.496;2023-09-18T03:47:37;99476.59;;;24.80;58.87
50702;BME280;36670;50.094;8.496;2023-09-18T03:50:08;99477.09;;;24.66;59.39
50702;BME280;36670;50.094;8.496;2023-09-18T03:52:33;99463.94;;;24.23;59.93
50702;BME280;36670;50.094;8.496;2023-09-18T03:54:58;99464.53;;;24.64;59.70
50702;BME280;36670;50.094;8.496;2023-09-18T03:57:24;99469.03;;;24.33;60.30
50702;BME280;36670;50.094;8.496;2023-09-18T03:59:49;99484.38;;;24.51;60.10
50702;BME280;36670;50.094;8.496;2023-09-18T04:02:15;99498.56;;;24.55;59.82
50702;BME280;36670;50.094;8.496;2023-09-18T04:04:40;99501.84;;;24.57;60.15
50702;BME280;36670;50.094;8.496;2023-09-18T04:07:06;99489.72;;;24.73;59.31
50702;BME280;36670;50.094;8.496;2023-09-18T04:09:31;99489.31;;;24.90;59.01
50702;BME280;36670;50.094;8.496;2023-09-18T04:11:57;99496.97;;;24.90;59.19
50702;BME280;36670;50.094;8.496;2023-09-18T04:14:22;99484.56;;;24.94;59.26
50702;BME280;36670;50.094;8.496;2023-09-18T04:16:47;99495.38;;;24.73;59.79
50702;BME280;36670;50.094;8.496;2023-09-18T04:19:13;99492.13;;;24.70;59.13
50702;BME280;36670;50.094;8.496;2023-09-18T04:21:38;99485.28;;;24.91;58.94
50702;BME280;36670;50.094;8.496;2023-09-18T04:24:04;99501.00;;;24.88;58.99
50702;BME280;36670;50.094;8.496;2023-09-18T04:26:29;99488.22;;;24.95;58.33
50702;BME280;36670;50.094;8.496;2023-09-18T04:29:00;99491.38;;;24.74;59.64
50702;BME280;36670;50.094;8.496;2023-09-18T04:31:26;99489.88;;;24.80;59.20
50702;BME280;36670;50.094;8.496;2023-09-18T04:33:52;99487.81;;;24.77;59.35
50702;BME280;36670;50.094;8.496;2023-09-18T04:36:17;99486.47;;;24.54;60.09
50702;BME280;36670;50.094;8.496;2023-09-18T04:38:43;99477.69;;;24.24;61.60
50702;BME280;36670;50.094;8.496;2023-09-18T04:41:08;99459.09;;;24.39;60.21
50702;BME280;36670;50.094;8.496;2023-09-18T04:43:36;99458.56;;;23.69;62.34
50702;BME280;36670;50.094;8.496;2023-09-18T04:46:01;99447.03;;;23.75;62.35
50702;BME280;36670;50.094;8.496;2023-09-18T04:48:30;99470.06;;;24.25;61.48
50702;BME280;36670;50.094;8.496;2023-09-18T04:50:56;99458.25;;;24.19;61.81
50702;BME280;36670;50.094;8.496;2023-09-18T04:53:21;99455.31;;;24.15;61.76
50702;BME280;36670;50.094;8.496;2023-09-18T04:55:47;99441.00;;;24.40;61.43
50702;BME280;36670;50.094;8.496;2023-09-18T04:58:14;99428.47;;;24.22;61.62
50702;BME280;36670;50.094;8.496;2023-09-18T05:00:40;99439.50;;;24.46;61.19
50702;BME280;36670;50.094;8.496;2023-09-18T05:03:06;99445.03;;;24.23;61.39
50702;BME280;36670;50.094;8.496;2023-09-18T05:05:33;99430.78;;;24.51;61.38
50702;BME280;36670;50.094;8.496;2023-09-18T05:07:59;99419.03;;;24.65;60.08
50702;BME280;36670;50.094;8.496;2023-09-18T05:10:24;99424.41;;;24.03;61.55
50702;BME280;36670;50.094;8.496;2023-09-18T05:12:49;99423.44;;;24.31;60.99
50702;BME280;36670;50.094;8.496;2023-09-18T05:15:15;99444.56;;;24.73;60.32
50702;BME280;36670;50.094;8.496;2023-09-18T05:17:46;99447.03;;;24.94;60.18
50702;BME280;36670;50.094;8.496;2023-09-18T05:20:13;99455.63;;;24.81;60.20
50702;BME280;36670;50.094;8.496;2023-09-18T05:22:39;99447.19;;;25.01;59.37
50702;BME280;36670;50.094;8.496;2023-09-18T05:25:04;99453.16;;;24.96;59.31
50702;BME280;36670;50.094;8.496;2023-09-18T05:27:31;99459.44;;;24.89;59.21
50702;BME280;36670;50.094;8.496;2023-09-18T05:29:56;99467.69;;;24.78;59.86
50702;BME280;36670;50.094;8.496;2023-09-18T05:32:21;99475.88;;;25.03;59.32
50702;BME280;36670;50.094;8.496;2023-09-18T05:34:46;99477.16;;;25.05;59.59
50702;BME280;36670;50.094;8.496;2023-09-18T05:37:11;99487.03;;;25.15;58.95
50702;BME280;36670;50.094;8.496;2023-09-18T05:39:37;99487.19;;;25.22;58.85
50702;BME280;36670;50.094;8.496;2023-09-18T05:42:02;99502.09;;;25.23;58.60
50702;BME280;36670;50.094;8.496;2023-09-18T05:44:28;99501.22;;;25.19;58.28
50702;BME280;36670;50.094;8.496;2023-09-18T05:46:53;99492.56;;;24.73;59.28
50702;BME280;36670;50.094;8.496;2023-09-18T05:49:18;99485.50;;;24.82;59.68
50702;BME280;36670;50.094;8.496;2023-09-18T05:51:43;99487.53;;;25.01;59.55
50702;BME280;36670;50.094;8.496;2023-09-18T05:54:09;99491.69;;;25.08;59.53
50702;BME280;36670;50.094;8.496;2023-09-18T05:56:34;99510.53;;;25.19;59.38
50702;BME280;36670;50.094;8.496;2023-09-18T05:59:00;99501.81;;;25.09;59.21
50702;BME280;36670;50.094;8.496;2023-09-18T06:01:25;99488.19;;;24.75;59.73
50702;BME280;36670;50.094;8.496;2023-09-18T06:03:51;99487.72;;;24.73;60.26
50702;BME280;36670;50.094;8.496;2023-09-18T06:06:16;99499.34;;;24.87;59.23
50702;BME280;36670;50.094;8.496;2023-09-18T06:08:41;99481.28;;;24.92;59.31
50702;BME280;36670;50.094;8.496;2023-09-18T06:11:06;99479.88;;;24.82;60.18
50702;BME280;36670;50.094;8.496;2023-09-18T06:13:32;99465.63;;;24.95;59.60
50702;BME280;36670;50.094;8.496;2023-09-18T06:15:59;99476.25;;;25.21;58.94
50702;BME280;36670;50.094;8.496;2023-09-18T06:18:24;99486.13;;;25.31;59.02
50702;BME280;36670;50.094;8.496;2023-09-18T06:20:49;99492.72;;;25.35;58.47
50702;BME280;36670;50.094;8.496;2023-09-18T06:23:15;99491.19;;;25.41;58.88
50702;BME280;36670;50.094;8.496;2023-09-18T06:25:41;99488.22;;;25.53;58.33
50702;BME280;36670;50.094;8.496;2023-09-18T06:28:06;99485.63;;;25.45;58.48
50702;BME280;36670;50.094;8.496;2023-09-18T06:30:32;99491.66;;;25.43;58.47
50702;BME280;36670;50.094;8.496;2023-09-18T06:32:58;99473.56;;;24.89;59.07
50702;BME280;36670;50.094;8.496;2023-09-18T06:35:24;99486.72;;;25.20;59.52
50702;BME280;36670;50.094;8.496;2023-09-18T06:37:49;99491.03;;;25.14;59.53
50702;BME280;36670;50.094;8.496;2023-09-18T06:40:14;99493.34;;;25.09;59.44
50702;BME280;36670;50.094;8.496;2023-09-18T06:42:40;99505.91;;;24.92;60.13
50702;BME280;36670;50.094;8.496;2023-09-18T06:45:06;99501.84;;;24.93;59.32
50702;BME280;36670;50.094;8.496;2023-09-18T06:47:35;99500.91;;;25.04;59.47
50702;BME280;36670;50.094;8.496;2023-09-18T06:50:00;99512.97;;;25.21;59.50
50702;BME280;36670;50.094;8.496;2023-09-18T06:52:27;99515.31;;;25.35;58.65
50702;BME280;36670;50.094;8.496;2023-09-18T06:54:53;99522.22;;;25.37;58.98
50702;BME280;36670;50.094;8.496;2023-09-18T06:57:18;99549.66;;;25.37;59.07
50702;BME280;36670;50.094;8.496;2023-09-18T06:59:46;99543.94;;;24.98;59.57
50702;BME280;36670;50.094;8.496;2023-09-18T07:02:11;99540.75;;;25.19;59.73
50702;BME280;36670;50.094;8.496;2023-09-18T07:04:39;99550.44;;;24.82;60.85
50702;BME280;36670;50.094;8.496;2023-09-18T07:07:09;99545.22;;;25.00;60.17
50702;BME280;36670;50.094;8.496;2023-09-18T07:09:35;99547.91;;;25.13;59.79
50702;BME280;36670;50.094;8.496;2023-09-18T07:12:00;99536.94;;;24.92;60.93
50702;BME280;36670;50.094;8.496;2023-09-18T07:14:26;99531.63;;;25.06;60.63
50702;BME280;36670;50.094;8.496;2023-09-18T07:16:51;99522.88;;;24.44;61.44
50702;BME280;36670;50.094;8.496;2023-09-18T07:19:16;99537.91;;;24.48;61.40
50702;BME280;36670;50.094;8.496;2023-09-18T07:21:42;99535.28;;;24.39;61.75
50702;BME280;36670;50.094;8.496;2023-09-18T07:24:07;99535.91;;;24.48;61.37
50702;BME280;36670;50.094;8.496;2023-09-18T07:26:32;99546.28;;;24.76;60.98
50702;BME280;36670;50.094;8.496;2023-09-18T07:28:58;99550.50;;;24.66;61.02
50702;BME280;36670;50.094;8.496;2023-09-18T07:31:24;99539.38;;;24.74;61.20
50702;BME280;36670;50.094;8.496;2023-09-18T07:33:50;99537.56;;;24.65;61.30
50702;BME280;36670;50.094;8.496;2023-09-18T07:36:16;99544.59;;;24.91;60.72
50702;BME280;36670;50.094;8.496;2023-09-18T07:38:42;99543.81;;;24.75;61.03
50702;BME280;36670;50.094;8.496;2023-09-18T07:41:10;99548.19;;;25.08;60.63
50702;BME280;36670;50.094;8.496;2023-09-18T07:43:35;99544.94;;;25.05;60.28
50702;BME280;36670;50.094;8.496;2023-09-18T07:46:00;99550.72;;;25.13;60.37
50702;BME280;36670;50.094;8.496;2023-09-18T07:48:27;99548.19;;;25.27;60.13
50702;BME280;36670;50.094;8.496;2023-09-18T07:50:52;99557.19;;;25.13;60.97
50702;BME280;36670;50.094;8.496;2023-09-18T07:53:19;99549.91;;;25.12;60.57
50702;BME280;36670;50.094;8.496;2023-09-18T07:55:44;99547.81;;;25.29;60.05
50702;BME280;36670;50.094;8.496;2023-09-18T07:58:10;99544.03;;;25.21;60.62
50702;BME280;36670;50.094;8.496;2023-09-18T08:00:36;99551.00;;;25.08;60.63
50702;BME280;36670;50.094;8.496;2023-09-18T08:03:02;99560.66;;;25.07;60.54
50702;BME280;36670;50.094;8.496;2023-09-18T08:05:27;99566.50;;;25.14;60.74
50702;BME280;36670;50.094;8.496;2023-09-18T08:07:56;99572.00;;;25.26;60.51
50702;BME280;36670;50.094;8.496;2023-09-18T08:10:22;99570.84;;;25.47;60.32
50702;BME280;36670;50.094;8.496;2023-09-18T08:12:48;99579.47;;;25.34;60.02
50702;BME280;36670;50.094;8.496;2023-09-18T08:15:15;99579.31;;;25.47;59.83
50702;BME280;36670;50.094;8.496;2023-09-18T08:17:40;99581.03;;;25.71;60.14
50702;BME280;36670;50.094;8.496;2023-09-18T08:20:06;99575.22;;;25.83;59.33
50702;BME280;36670;50.094;8.496;2023-09-18T08:22:38;99562.72;;;25.65;59.01
50702;BME280;36670;50.094;8.496;2023-09-18T08:25:05;99566.78;;;25.87;59.15
50702;BME280;36670;50.094;8.496;2023-09-18T08:27:32;99570.63;;;25.98;58.63
50702;BME280;36670;50.094;8.496;2023-09-18T08:29:58;99570.31;;;25.80;58.57
50702;BME280;36670;50.094;8.496;2023-09-18T08:32:25;99560.28;;;25.63;59.13
50702;BME280;36670;50.094;8.496;2023-09-18T08:34:50;99560.38;;;25.67;59.48
50702;BME280;36670;50.094;8.496;2023-09-18T08:37:15;99564.19;;;25.98;58.45
50702;BME280;36670;50.094;8.496;2023-09-18T08:39:40;99561.94;;;26.30;58.02
50702;BME280;36670;50.094;8.496;2023-09-18T08:42:08;99557.81;;;26.47;57.58
50702;BME280;36670;50.094;8.496;2023-09-18T08:44:38;99572.00;;;26.28;57.04
50702;BME280;36670;50.094;8.496;2023-09-18T08:47:05;99578.13;;;26.30;57.19
50702;BME280;36670;50.094;8.496;2023-09-18T08:49:32;99563.69;;;26.62;56.22
50702;BME280;36670;50.094;8.496;2023-09-18T08:51:59;99558.47;;;26.64;56.19
50702;BME280;36670;50.094;8.496;2023-09-18T08:54:24;99552.97;;;26.48;55.81
50702;BME280;36670;50.094;8.496;2023-09-18T08:56:53;99551.97;;;26.36;56.43
50702;BME280;36670;50.094;8.496;2023-09-18T08:59:21;99537.75;;;26.33;56.65
50702;BME280;36670;50.094;8.496;2023-09-18T09:01:47;99529.09;;;26.72;55.49
50702;BME280;36670;50.094;8.496;2023-09-18T09:04:12;99530.13;;;26.60;56.36
50702;BME280;36670;50.094;8.496;2023-09-18T09:06:38;99545.22;;;26.45;55.89
50702;BME280;36670;50.094;8.496;2023-09-18T09:09:03;99538.63;;;26.64;55.57
50702;BME280;36670;50.094;8.496;2023-09-18T09:11:29;99525.63;;;26.32;55.79
50702;BME280;36670;50.094;8.496;2023-09-18T09:14:09;99534.53;;;26.34;55.94
50702;BME280;36670;50.094;8.496;2023-09-18T09:16:38;99531.41;;;26.39;55.67
50702;BME280;36670;50.094;8.496;2023-09-18T09:19:05;99537.28;;;26.77;55.22
50702;BME280;36670;50.094;8.496;2023-09-18T09:21:41;99543.63;;;26.70;55.12
50702;BME280;36670;50.094;8.496;2023-09-18T09:24:09;99547.69;;;27.00;54.53
50702;BME280;36670;50.094;8.496;2023-09-18T09:26:39;99536.47;;;27.07;54.97
50702;BME280;36670;50.094;8.496;2023-09-18T09:29:15;99525.44;;;26.98;53.50
50702;BME280;36670;50.094;8.496;2023-09-18T09:31:43;99519.38;;;27.00;53.86
50702;BME280;36670;50.094;8.496;2023-09-18T09:34:08;99521.22;;;26.85;52.56
50702;BME280;36670;50.094;8.496;2023-09-18T09:36:34;99539.28;;;26.77;53.43
50702;BME280;36670;50.094;8.496;2023-09-18T09:38:59;99537.78;;;26.60;53.50
50702;BME280;36670;50.094;8.496;2023-09-18T09:41:25;99539.56;;;26.45;53.48
50702;BME280;36670;50.094;8.496;2023-09-18T09:43:53;99554.47;;;26.41;52.88
50702;BME280;36670;50.094;8.496;2023-09-18T09:46:21;99565.31;;;25.93;52.77
50702;BME280;36670;50.094;8.496;2023-09-18T09:49:01;99551.78;;;25.83;53.40
50702;BME280;36670;50.094;8.496;2023-09-18T09:51:27;99550.78;;;25.95;53.64
50702;BME280;36670;50.094;8.496;2023-09-18T09:53:54;99570.00;;;25.85;53.09
50702;BME280;36670;50.094;8.496;2023-09-18T09:56:19;99577.28;;;26.06;53.65
50702;BME280;36670;50.094;8.496;2023-09-18T09:59:04;99584.91;;;26.02;53.54
50702;BME280;36670;50.094;8.496;2023-09-18T10:01:33;99578.19;;;26.10;53.35
50702;BME280;36670;50.094;8.496;2023-09-18T10:03:59;99582.31;;;26.16;53.25
50702;BME280;36670;50.094;8.496;2023-09-18T10:06:27;99577.16;;;26.22;52.36
50702;BME280;36670;50.094;8.496;2023-09-18T10:08:55;99582.56;;;26.54;52.69
50702;BME280;36670;50.094;8.496;2023-09-18T10:11:21;99591.63;;;27.13;51.95
50702;BME280;36670;50.094;8.496;2023-09-18T10:13:55;99603.97;;;27.01;51.35
50702;BME280;36670;50.094;8.496;2023-09-18T10:16:23;99596.41;;;26.82;50.31
50702;BME280;36670;50.094;8.496;2023-09-18T10:19:11;99598.47;;;26.62;51.02
50702;BME280;36670;50.094;8.496;2023-09-18T10:24:23;99602.69;;;26.95;50.91
50702;BME280;36670;50.094;8.496;2023-09-18T10:27:00;99604.03;;;27.05;50.91
50702;BME280;36670;50.094;8.496;2023-09-18T10:29:29;99597.22;;;27.09;51.08
50702;BME280;36670;50.094;8.496;2023-09-18T10:31:55;99582.69;;;26.84;51.57
50702;BME280;36670;50.094;8.496;2023-09-18T10:34:22;99589.78;;;26.98;50.72
50702;BME280;36670;50.094;8.496;2023-09-18T10:36:49;99580.44;;;26.97;50.31
50702;BME280;36670;50.094;8.496;2023-09-18T10:39:15;99587.09;;;26.82;50.31
50702;BME280;36670;50.094;8.496;2023-09-18T10:41:47;99592.66;;;26.74;51.01
50702;BME280;36670;50.094;8.496;2023-09-18T10:44:13;99581.84;;;27.11;50.75
50702;BME280;36670;50.094;8.496;2023-09-18T10:46:39;99574.78;;;26.97;51.12
50702;BME280;36670;50.094;8.496;2023-09-18T10:49:04;99573.91;;;27.20;50.24
50702;BME280;36670;50.094;8.496;2023-09-18T10:51:31;99570.22;;;27.19;49.90
50702;BME280;36670;50.094;8.496;2023-09-18T10:53:58;99583.88;;;27.10;50.21
50702;BME280;36670;50.094;8.496;2023-09-18T10:56:24;99587.47;;;27.07;49.96
50702;BME280;36670;50.094;8.496;2023-09-18T10:58:58;99593.31;;;26.91;49.49
50702;BME280;36670;50.094;8.496;2023-09-18T11:01:23;99585.88;;;27.09;49.94
50702;BME280;36670;50.094;8.496;2023-09-18T11:03:52;99579.69;;;27.31;50.13
50702;BME280;36670;50.094;8.496;2023-09-18T11:06:17;99595.28;;;27.40;49.18
50702;BME280;36670;50.094;8.496;2023-09-18T11:08:48;99584.44;;;27.50;49.28
50702;BME280;36670;50.094;8.496;2023-09-18T11:11:17;99595.09;;;27.30;49.34
50702;BME280;36670;50.094;8.496;2023-09-18T11:13:49;99594.97;;;27.49;49.39
50702;BME280;36670;50.094;8.496;2023-09-18T11:21:31;99600.97;;;27.44;49.25
50702;BME280;36670;50.094;8.496;2023-09-18T11:24:17;99605.66;;;27.33;49.57
50702;BME280;36670;50.094;8.496;2023-09-18T11:26:44;99602.63;;;27.49;49.19
50702;BME280;36670;50.094;8.496;2023-09-18T11:29:12;99611.19;;;27.83;48.99
50702;BME280;36670;50.094;8.496;2023-09-18T11:31:49;99618.75;;;27.71;49.28
50702;BME280;36670;50.094;8.496;2023-09-18T11:34:22;99614.19;;;27.63;48.88
50702;BME280;36670;50.094;8.496;2023-09-18T11:36:48;99609.56;;;27.51;49.28
50702;BME280;36670;50.094;8.496;2023-09-18T11:39:36;99607.00;;;27.73;48.68
50702;BME280;36670;50.094;8.496;2023-09-18T11:42:19;99596.91;;;28.09;48.06
50702;BME280;36670;50.094;8.496;2023-09-18T11:44:47;99604.28;;;28.18;48.16
50702;BME280;36670;50.094;8.496;2023-09-18T11:47:16;99595.44;;;28.23;47.82
50702;BME280;36670;50.094;8.496;2023-09-18T11:49:59;99604.28;;;28.18;48.09
50702;BME280;36670;50.094;8.496;2023-09-18T11:52:27;99608.81;;;27.88;47.85
50702;BME280;36670;50.094;8.496;2023-09-18T11:54:53;99610.81;;;28.22;48.02
50702;BME280;36670;50.094;8.496;2023-09-18T11:57:20;99612.47;;;28.23;47.73
50702;BME280;36670;50.094;8.496;2023-09-18T11:59:46;99611.06;;;28.47;47.15
50702;BME280;36670;50.094;8.496;2023-09-18T12:02:13;99598.00;;;28.35;48.01
50702;BME280;36670;50.094;8.496;2023-09-18T12:04:46;99597.72;;;28.10;47.78
50702;BME280;36670;50.094;8.496;2023-09-18T12:07:12;99608.56;;;28.38;47.51
50702;BME280;36670;50.094;8.496;2023-09-18T12:09:39;99608.69;;;28.12;47.79
50702;BME280;36670;50.094;8.496;2023-09-18T12:12:05;99596.97;;;28.17;47.05
50702;BME280;36670;50.094;8.496;2023-09-18T12:14:32;99589.25;;;28.14;47.75
50702;BME280;36670;50.094;8.496;2023-09-18T12:17:02;99592.25;;;28.32;47.71
50702;BME280;36670;50.094;8.496;2023-09-18T12:19:29;99591.88;;;28.33;47.44
50702;BME280;36670;50.094;8.496;2023-09-18T12:21:55;99590.72;;;28.41;47.06
50702;BME280;36670;50.094;8.496;2023-09-18T12:24:22;99584.69;;;28.47;47.34
50702;BME280;36670;50.094;8.496;2023-09-18T12:26:48;99578.16;;;28.87;46.73
50702;BME280;36670;50.094;8.496;2023-09-18T12:29:14;99579.66;;;29.33;46.74
50702;BME280;36670;50.094;8.496;2023-09-18T12:31:40;99566.94;;;29.09;46.23
50702;BME280;36670;50.094;8.496;2023-09-18T12:34:14;99574.69;;;29.19;45.94
50702;BME280;36670;50.094;8.496;2023-09-18T12:36:41;99570.25;;;29.22;45.28
50702;BME280;36670;50.094;8.496;2023-09-18T12:39:08;99568.69;;;29.32;45.27
50702;BME280;36670;50.094;8.496;2023-09-18T12:41:34;99564.34;;;29.59;44.74
50702;BME280;36670;50.094;8.496;2023-09-18T12:44:00;99558.47;;;29.23;44.74
50702;BME280;36670;50.094;8.496;2023-09-18T12:46:25;99556.78;;;29.11;45.46
50702;BME280;36670;50.094;8.496;2023-09-18T12:48:51;99557.94;;;29.00;45.68
50702;BME280;36670;50.094;8.496;2023-09-18T12:51:16;99561.81;;;29.36;44.96
50702;BME280;36670;50.094;8.496;2023-09-18T12:53:47;99565.84;;;29.32;44.78
50702;BME280;36670;50.094;8.496;2023-09-18T12:56:13;99561.94;;;29.69;44.12
50702;BME280;36670;50.094;8.496;2023-09-18T12:58:40;99571.81;;;30.14;43.32
50702;BME280;36670;50.094;8.496;2023-09-18T13:01:07;99576.31;;;30.23;43.37
50702;BME280;36670;50.094;8.496;2023-09-18T13:03:53;99578.38;;;30.29;42.90
50702;BME280;36670;50.094;8.496;2023-09-18T13:06:20;99585.84;;;29.50;43.65
50702;BME280;36670;50.094;8.496;2023-09-18T13:08:46;99585.72;;;29.28;44.21